sensor_id;sensor_type;location;lat;lon;timestamp;temperature;humidity
60027;DHT22;45891;53.006;6.512;2023-06-05T00:01:47;10.50;99.90
60027;DHT22;45891;53.006;6.512;2023-06-05T00:04:14;10.40;99.90
60027;DHT22;45891;53.006;6.512;2023-06-05T00:06:40;10.40;99.90
60027;DHT22;45891;53.006;6.512;2023-06-05T00:09:06;10.30;99.90
60027;DHT22;45891;53.006;6.512;2023-06-05T00:11:33;10.30;99.90
60027;DHT22;45891;53.006;6.512;2023-06-05T00:13:59;10.20;99.90
60027;DHT22;45891;53.006;6.512;2023-06-05T00:16:25;10.30;99.90
60027;DHT22;45891;53.006;6.512;2023-06-05T00:18:51;10.30;99.90
60027;DHT22;45891;53.006;6.512;2023-06-05T00:21:17;10.30;99.90
60027;DHT22;45891;53.006;6.512;2023-06-05T00:23:45;10.20;99.90
60027;DHT22;45891;53.006;6.512;2023-06-05T00:26:11;10.20;99.90
60027;DHT22;45891;53.006;6.512;2023-06-05T00:28:38;10.20;99.90
60027;DHT22;45891;53.006;6.512;2023-06-05T00:31:05;10.20;99.90
60027;DHT22;45891;53.006;6.512;2023-06-05T00:33:32;10.30;99.90
60027;DHT22;45891;53.006;6.512;2023-06-05T00:35:58;10.20;99.90
60027;DHT22;45891;53.006;6.512;2023-06-05T00:38:24;10.30;99.90
60027;DHT22;45891;53.006;6.512;2023-06-05T00:40:50;10.30;99.90
60027;DHT22;45891;53.006;6.512;2023-06-05T00:43:16;10.30;99.90
60027;DHT22;45891;53.006;6.512;2023-06-05T00:45:43;10.30;99.90
60027;DHT22;45891;53.006;6.512;2023-06-05T00:48:09;10.30;99.90
60027;DHT22;45891;53.006;6.512;2023-06-05T00:50:36;10.20;99.90
60027;DHT22;45891;53.006;6.512;2023-06-05T00:53:04;10.30;99.90
60027;DHT22;45891;53.006;6.512;2023-06-05T00:55:32;10.20;99.90
60027;DHT22;45891;53.006;6.512;2023-06-05T00:58:00;10.20;99.90
60027;DHT22;45891;53.006;6.512;2023-06-05T01:00:27;10.20;99.90
60027;DHT22;45891;53.006;6.512;2023-06-05T01:02:53;10.20;99.90
60027;DHT22;45891;53.006;6.512;2023-06-05T01:05:19;10.10;99.90
60027;DHT22;45891;53.006;6.512;2023-06-05T01:07:46;10.10;99.90
60027;DHT22;45891;53.006;6.512;2023-06-05T01:10:14;10.10;99.90
60027;DHT22;45891;53.006;6.512;2023-06-05T01:13:21;10.00;99.90
60027;DHT22;45891;53.006;6.512;2023-06-05T01:15:44;10.00;99.90
60027;DHT22;45891;53.006;6.512;2023-06-05T01:18:11;10.00;99.90
60027;DHT22;45891;53.006;6.512;2023-06-05T01:20:38;10.00;99.90
60027;DHT22;45891;53.006;6.512;2023-06-05T01:23:06;9.90;99.90
60027;DHT22;45891;53.006;6.512;2023-06-05T01:25:32;9.90;99.90
60027;DHT22;45891;53.006;6.512;2023-06-05T01:28:19;9.90;99.90
60027;DHT22;45891;53.006;6.512;2023-06-05T01:31:04;9.90;99.90
60027;DHT22;45891;53.006;6.512;2023-06-05T01:33:45;9.90;99.90
60027;DHT22;45891;53.006;6.512;2023-06-05T01:36:15;9.80;99.90
60027;DHT22;45891;53.006;6.512;2023-06-05T01:38:44;9.90;99.90
60027;DHT22;45891;53.006;6.512;2023-06-05T01:41:12;9.80;99.90
60027;DHT22;45891;53.006;6.512;2023-06-05T01:43:39;9.80;99.90
60027;DHT22;45891;53.006;6.512;2023-06-05T01:46:06;9.90;99.90
60027;DHT22;45891;53.006;6.512;2023-06-05T01:48:33;9.90;99.90
60027;DHT22;45891;53.006;6.512;2023-06-05T01:51:01;9.90;99.90
60027;DHT22;45891;53.006;6.512;2023-06-05T01:53:27;9.80;99.90
60027;DHT22;45891;53.006;6.512;2023-06-05T01:55:54;9.80;99.90
60027;DHT22;45891;53.006;6.512;2023-06-05T01:58:26;9.80;99.90
60027;DHT22;45891;53.006;6.512;2023-06-05T02:00:53;9.80;99.90
60027;DHT22;45891;53.006;6.512;2023-06-05T02:03:20;9.80;99.90
60027;DHT22;45891;53.006;6.512;2023-06-05T02:05:46;9.90;99.90
60027;DHT22;45891;53.006;6.512;2023-06-05T02:08:13;9.90;99.90
60027;DHT22;45891;53.006;6.512;2023-06-05T02:10:43;9.90;99.90
60027;DHT22;45891;53.006;6.512;2023-06-05T02:13:10;9.90;99.90
60027;DHT22;45891;53.006;6.512;2023-06-05T02:15:37;10.00;99.90
60027;DHT22;45891;53.006;6.512;2023-06-05T02:18:03;10.00;99.90
60027;DHT22;45891;53.006;6.512;2023-06-05T02:20:31;10.00;99.90
60027;DHT22;45891;53.006;6.512;2023-06-05T02:22:58;10.00;99.90
60027;DHT22;45891;53.006;6.512;2023-06-05T02:25:24;10.00;99.90
60027;DHT22;45891;53.006;6.512;2023-06-05T02:27:54;10.10;99.90
60027;DHT22;45891;53.006;6.512;2023-06-05T02:30:21;10.10;99.90
60027;DHT22;45891;53.006;6.512;2023-06-05T02:32:49;10.10;99.90
60027;DHT22;45891;53.006;6.512;2023-06-05T02:35:23;10.20;99.90
60027;DHT22;45891;53.006;6.512;2023-06-05T02:37:49;10.10;99.90
60027;DHT22;45891;53.006;6.512;2023-06-05T02:40:16;10.20;99.90
60027;DHT22;45891;53.006;6.512;2023-06-05T02:42:42;10.20;99.90
60027;DHT22;45891;53.006;6.512;2023-06-05T02:45:08;10.20;99.90
60027;DHT22;45891;53.006;6.512;2023-06-05T02:47:35;10.20;99.90
60027;DHT22;45891;53.006;6.512;2023-06-05T02:50:01;10.20;99.90
60027;DHT22;45891;53.006;6.512;2023-06-05T02:52:28;10.20;99.90
60027;DHT22;45891;53.006;6.512;2023-06-05T02:54:57;10.20;99.90
60027;DHT22;45891;53.006;6.512;2023-06-05T02:57:24;10.20;99.90
60027;DHT22;45891;53.006;6.512;2023-06-05T02:59:52;10.20;99.90
60027;DHT22;45891;53.006;6.512;2023-06-05T03:02:18;10.20;99.90
60027;DHT22;45891;53.006;6.512;2023-06-05T03:04:44;10.20;99.90
60027;DHT22;45891;53.006;6.512;2023-06-05T03:07:10;10.20;99.90
60027;DHT22;45891;53.006;6.512;2023-06-05T03:09:39;10.20;99.90
60027;DHT22;45891;53.006;6.512;2023-06-05T03:12:05;10.20;99.90
60027;DHT22;45891;53.006;6.512;2023-06-05T03:14:31;10.30;99.90
60027;DHT22;45891;53.006;6.512;2023-06-05T03:16:57;10.30;99.90
60027;DHT22;45891;53.006;6.512;2023-06-05T03:19:24;10.30;99.90
60027;DHT22;45891;53.006;6.512;2023-06-05T03:21:51;10.30;99.90
60027;DHT22;45891;53.006;6.512;2023-06-05T03:24:19;10.30;99.90
60027;DHT22;45891;53.006;6.512;2023-06-05T03:26:45;10.30;99.90
60027;DHT22;45891;53.006;6.512;2023-06-05T03:29:12;10.30;99.90
60027;DHT22;45891;53.006;6.512;2023-06-05T03:31:38;10.40;99.90
60027;DHT22;45891;53.006;6.512;2023-06-05T03:34:04;10.40;99.90
60027;DHT22;45891;53.006;6.512;2023-06-05T03:36:31;10.40;99.90
60027;DHT22;45891;53.006;6.512;2023-06-05T03:39:00;10.40;99.90
60027;DHT22;45891;53.006;6.512;2023-06-05T03:41:26;10.50;99.90
60027;DHT22;45891;53.006;6.512;2023-06-05T03:43:53;10.50;99.90
60027;DHT22;45891;53.006;6.512;2023-06-05T03:46:19;10.50;99.90
60027;DHT22;45891;53.006;6.512;2023-06-05T03:48:49;10.50;99.90
60027;DHT22;45891;53.006;6.512;2023-06-05T03:51:15;10.50;99.90
60027;DHT22;45891;53.006;6.512;2023-06-05T03:53:45;10.50;99.90
60027;DHT22;45891;53.006;6.512;2023-06-05T03:56:11;10.60;99.90
60027;DHT22;45891;53.006;6.512;2023-06-05T03:58:41;10.60;99.90
60027;DHT22;45891;53.006;6.512;2023-06-05T04:01:07;10.60;99.90
60027;DHT22;45891;53.006;6.512;2023-06-05T04:03:34;10.70;99.90
60027;DHT22;45891;53.006;6.512;2023-06-05T04:06:03;10.70;99.90
60027;DHT22;45891;53.006;6.512;2023-06-05T04:08:34;10.70;99.90
60027;DHT22;45891;53.006;6.512;2023-06-05T04:11:00;10.80;99.90
60027;DHT22;45891;53.006;6.512;2023-06-05T04:13:27;10.90;99.90
60027;DHT22;45891;53.006;6.512;2023-06-05T04:15:53;10.90;99.90
60027;DHT22;45891;53.006;6.512;2023-06-05T04:18:19;10.90;99.90
60027;DHT22;45891;53.006;6.512;2023-06-05T04:20:46;11.00;99.90
60027;DHT22;45891;53.006;6.512;2023-06-05T04:23:12;11.10;99.90
60027;DHT22;45891;53.006;6.512;2023-06-05T04:25:38;11.10;99.90
60027;DHT22;45891;53.006;6.512;2023-06-05T04:28:06;11.10;99.90
60027;DHT22;45891;53.006;6.512;2023-06-05T04:30:33;11.20;99.90
60027;DHT22;45891;53.006;6.512;2023-06-05T04:32:59;11.20;99.90
60027;DHT22;45891;53.006;6.512;2023-06-05T04:35:25;11.30;99.90
60027;DHT22;45891;53.006;6.512;2023-06-05T04:37:52;11.40;99.90
60027;DHT22;45891;53.006;6.512;2023-06-05T04:40:18;11.40;99.90
60027;DHT22;45891;53.006;6.512;2023-06-05T04:42:47;11.50;99.90
60027;DHT22;45891;53.006;6.512;2023-06-05T04:45:14;11.60;99.90
60027;DHT22;45891;53.006;6.512;2023-06-05T04:47:42;11.60;99.90
60027;DHT22;45891;53.006;6.512;2023-06-05T04:50:25;11.70;99.90
60027;DHT22;45891;53.006;6.512;2023-06-05T04:52:52;11.80;99.90
60027;DHT22;45891;53.006;6.512;2023-06-05T04:55:19;11.90;99.90
60027;DHT22;45891;53.006;6.512;2023-06-05T04:57:47;12.00;99.90
60027;DHT22;45891;53.006;6.512;2023-06-05T05:00:17;12.00;99.90
60027;DHT22;45891;53.006;6.512;2023-06-05T05:02:43;12.10;99.90
60027;DHT22;45891;53.006;6.512;2023-06-05T05:05:09;12.10;99.90
60027;DHT22;45891;53.006;6.512;2023-06-05T05:07:41;12.30;99.90
60027;DHT22;45891;53.006;6.512;2023-06-05T05:10:09;12.30;99.90
60027;DHT22;45891;53.006;6.512;2023-06-05T05:12:36;12.30;99.90
60027;DHT22;45891;53.006;6.512;2023-06-05T05:15:03;12.40;99.90
60027;DHT22;45891;53.006;6.512;2023-06-05T05:17:30;12.40;99.90
60027;DHT22;45891;53.006;6.512;2023-06-05T05:19:57;12.50;99.90
60027;DHT22;45891;53.006;6.512;2023-06-05T05:22:24;12.50;99.90
60027;DHT22;45891;53.006;6.512;2023-06-05T05:24:51;12.40;99.90
60027;DHT22;45891;53.006;6.512;2023-06-05T05:27:17;12.50;99.90
60027;DHT22;45891;53.006;6.512;2023-06-05T05:29:45;12.50;99.90
60027;DHT22;45891;53.006;6.512;2023-06-05T05:32:14;12.60;99.90
60027;DHT22;45891;53.006;6.512;2023-06-05T05:34:40;12.70;99.90
60027;DHT22;45891;53.006;6.512;2023-06-05T05:37:17;12.70;99.90
60027;DHT22;45891;53.006;6.512;2023-06-05T05:39:43;12.80;99.90
60027;DHT22;45891;53.006;6.512;2023-06-05T05:42:09;12.90;99.90
60027;DHT22;45891;53.006;6.512;2023-06-05T05:44:35;13.10;99.90
60027;DHT22;45891;53.006;6.512;2023-06-05T05:47:01;13.20;99.90
60027;DHT22;45891;53.006;6.512;2023-06-05T05:49:28;13.30;99.90
60027;DHT22;45891;53.006;6.512;2023-06-05T05:51:54;13.50;99.90
60027;DHT22;45891;53.006;6.512;2023-06-05T05:54:20;13.70;99.90
60027;DHT22;45891;53.006;6.512;2023-06-05T05:56:48;13.80;99.90
60027;DHT22;45891;53.006;6.512;2023-06-05T05:59:14;14.00;99.90
60027;DHT22;45891;53.006;6.512;2023-06-05T06:01:40;14.00;99.90
60027;DHT22;45891;53.006;6.512;2023-06-05T06:04:06;14.10;99.90
60027;DHT22;45891;53.006;6.512;2023-06-05T06:06:32;14.30;99.90
60027;DHT22;45891;53.006;6.512;2023-06-05T06:08:59;14.20;99.90
60027;DHT22;45891;53.006;6.512;2023-06-05T06:11:26;14.00;99.90
60027;DHT22;45891;53.006;6.512;2023-06-05T06:13:53;14.20;99.90
60027;DHT22;45891;53.006;6.512;2023-06-05T06:16:19;14.40;99.90
60027;DHT22;45891;53.006;6.512;2023-06-05T06:18:45;14.60;99.90
60027;DHT22;45891;53.006;6.512;2023-06-05T06:21:12;15.00;99.90
60027;DHT22;45891;53.006;6.512;2023-06-05T06:23:38;15.30;99.90
60027;DHT22;45891;53.006;6.512;2023-06-05T06:26:04;15.50;99.90
60027;DHT22;45891;53.006;6.512;2023-06-05T06:28:32;15.70;99.90
60027;DHT22;45891;53.006;6.512;2023-06-05T06:30:58;15.40;99.90
60027;DHT22;45891;53.006;6.512;2023-06-05T06:33:24;15.20;99.90
60027;DHT22;45891;53.006;6.512;2023-06-05T06:35:50;15.00;99.90
60027;DHT22;45891;53.006;6.512;2023-06-05T06:38:17;14.80;99.90
60027;DHT22;45891;53.006;6.512;2023-06-05T06:40:43;14.50;99.90
60027;DHT22;45891;53.006;6.512;2023-06-05T06:43:09;14.40;99.90
60027;DHT22;45891;53.006;6.512;2023-06-05T06:45:36;14.70;99.90
60027;DHT22;45891;53.006;6.512;2023-06-05T06:48:03;14.70;99.90
60027;DHT22;45891;53.006;6.512;2023-06-05T06:50:29;14.90;99.90
60027;DHT22;45891;53.006;6.512;2023-06-05T06:52:55;15.00;99.90
60027;DHT22;45891;53.006;6.512;2023-06-05T06:55:21;15.30;99.90
60027;DHT22;45891;53.006;6.512;2023-06-05T06:57:47;15.30;99.90
60027;DHT22;45891;53.006;6.512;2023-06-05T07:00:14;15.40;99.90
60027;DHT22;45891;53.006;6.512;2023-06-05T07:02:40;15.60;99.90
60027;DHT22;45891;53.006;6.512;2023-06-05T07:05:06;15.90;99.90
60027;DHT22;45891;53.006;6.512;2023-06-05T07:07:33;16.20;99.90
60027;DHT22;45891;53.006;6.512;2023-06-05T07:09:59;16.50;99.90
60027;DHT22;45891;53.006;6.512;2023-06-05T07:12:25;16.50;99.90
60027;DHT22;45891;53.006;6.512;2023-06-05T07:14:51;16.60;99.90
60027;DHT22;45891;53.006;6.512;2023-06-05T07:17:17;16.60;99.90
60027;DHT22;45891;53.006;6.512;2023-06-05T07:19:43;16.70;99.90
60027;DHT22;45891;53.006;6.512;2023-06-05T07:22:09;16.80;99.90
60027;DHT22;45891;53.006;6.512;2023-06-05T07:24:36;17.10;99.90
60027;DHT22;45891;53.006;6.512;2023-06-05T07:27:04;17.40;99.90
60027;DHT22;45891;53.006;6.512;2023-06-05T07:29:31;17.50;99.90
60027;DHT22;45891;53.006;6.512;2023-06-05T07:31:58;17.50;99.90
60027;DHT22;45891;53.006;6.512;2023-06-05T07:34:26;17.70;99.90
60027;DHT22;45891;53.006;6.512;2023-06-05T07:36:53;17.70;99.70
60027;DHT22;45891;53.006;6.512;2023-06-05T07:39:20;17.70;99.30
60027;DHT22;45891;53.006;6.512;2023-06-05T07:41:46;17.50;99.70
60027;DHT22;45891;53.006;6.512;2023-06-05T07:44:17;17.40;99.40
60027;DHT22;45891;53.006;6.512;2023-06-05T07:46:45;17.40;99.50
60027;DHT22;45891;53.006;6.512;2023-06-05T07:49:11;17.70;99.50
60027;DHT22;45891;53.006;6.512;2023-06-05T07:51:37;18.10;98.90
60027;DHT22;45891;53.006;6.512;2023-06-05T07:54:08;18.40;98.80
60027;DHT22;45891;53.006;6.512;2023-06-05T07:56:34;18.40;98.50
60027;DHT22;45891;53.006;6.512;2023-06-05T07:59:01;18.40;97.90
60027;DHT22;45891;53.006;6.512;2023-06-05T08:01:33;18.60;98.70
60027;DHT22;45891;53.006;6.512;2023-06-05T08:04:06;19.10;98.40
60027;DHT22;45891;53.006;6.512;2023-06-05T08:06:33;19.60;98.20
60027;DHT22;45891;53.006;6.512;2023-06-05T08:09:07;20.10;98.20
60027;DHT22;45891;53.006;6.512;2023-06-05T08:11:36;20.60;97.80
60027;DHT22;45891;53.006;6.512;2023-06-05T08:14:04;20.90;97.50
60027;DHT22;45891;53.006;6.512;2023-06-05T08:16:33;21.30;96.80
60027;DHT22;45891;53.006;6.512;2023-06-05T08:18:59;21.30;96.60
60027;DHT22;45891;53.006;6.512;2023-06-05T08:21:25;21.50;96.70
60027;DHT22;45891;53.006;6.512;2023-06-05T08:23:51;21.80;96.00
60027;DHT22;45891;53.006;6.512;2023-06-05T08:26:21;21.70;95.70
60027;DHT22;45891;53.006;6.512;2023-06-05T08:28:48;21.90;95.30
60027;DHT22;45891;53.006;6.512;2023-06-05T08:31:15;22.20;94.60
60027;DHT22;45891;53.006;6.512;2023-06-05T08:33:42;22.20;95.00
60027;DHT22;45891;53.006;6.512;2023-06-05T08:36:08;22.30;94.60
60027;DHT22;45891;53.006;6.512;2023-06-05T08:38:35;22.50;94.50
60027;DHT22;45891;53.006;6.512;2023-06-05T08:41:06;22.80;94.10
60027;DHT22;45891;53.006;6.512;2023-06-05T08:43:42;22.30;92.50
60027;DHT22;45891;53.006;6.512;2023-06-05T08:46:12;22.30;93.70
60027;DHT22;45891;53.006;6.512;2023-06-05T08:48:48;22.30;93.70
60027;DHT22;45891;53.006;6.512;2023-06-05T08:51:18;22.70;93.40
60027;DHT22;45891;53.006;6.512;2023-06-05T08:54:03;22.50;93.40
60027;DHT22;45891;53.006;6.512;2023-06-05T08:56:39;23.20;92.00
60027;DHT22;45891;53.006;6.512;2023-06-05T08:59:06;23.50;92.40
60027;DHT22;45891;53.006;6.512;2023-06-05T09:01:32;23.70;92.70
60027;DHT22;45891;53.006;6.512;2023-06-05T09:03:58;23.90;92.20
60027;DHT22;45891;53.006;6.512;2023-06-05T09:06:24;23.90;91.70
60027;DHT22;45891;53.006;6.512;2023-06-05T09:08:51;23.90;91.20
60027;DHT22;45891;53.006;6.512;2023-06-05T09:11:31;23.80;90.60
60027;DHT22;45891;53.006;6.512;2023-06-05T09:13:59;23.60;90.90
60027;DHT22;45891;53.006;6.512;2023-06-05T09:16:42;24.00;90.80
60027;DHT22;45891;53.006;6.512;2023-06-05T09:19:10;24.20;90.60
60027;DHT22;45891;53.006;6.512;2023-06-05T09:21:37;24.50;90.50
60027;DHT22;45891;53.006;6.512;2023-06-05T09:24:10;24.60;90.20
60027;DHT22;45891;53.006;6.512;2023-06-05T09:29:12;24.90;89.00
60027;DHT22;45891;53.006;6.512;2023-06-05T09:31:42;25.40;88.80
60027;DHT22;45891;53.006;6.512;2023-06-05T09:34:08;25.80;87.10
60027;DHT22;45891;53.006;6.512;2023-06-05T09:36:36;25.70;88.10
60027;DHT22;45891;53.006;6.512;2023-06-05T09:39:16;25.80;86.60
60027;DHT22;45891;53.006;6.512;2023-06-05T09:41:50;26.00;84.10
60027;DHT22;45891;53.006;6.512;2023-06-05T09:44:18;25.80;85.80
60027;DHT22;45891;53.006;6.512;2023-06-05T09:47:04;25.80;86.00
60027;DHT22;45891;53.006;6.512;2023-06-05T09:49:33;26.10;84.40
60027;DHT22;45891;53.006;6.512;2023-06-05T09:52:12;26.10;84.90
60027;DHT22;45891;53.006;6.512;2023-06-05T09:54:41;26.50;84.10
60027;DHT22;45891;53.006;6.512;2023-06-05T09:57:08;26.30;84.80
60027;DHT22;45891;53.006;6.512;2023-06-05T10:02:12;27.10;81.70
60027;DHT22;45891;53.006;6.512;2023-06-05T10:04:46;27.10;82.10
60027;DHT22;45891;53.006;6.512;2023-06-05T10:07:13;27.00;82.00
60027;DHT22;45891;53.006;6.512;2023-06-05T10:09:39;27.20;82.30
60027;DHT22;45891;53.006;6.512;2023-06-05T10:12:07;26.90;81.00
60027;DHT22;45891;53.006;6.512;2023-06-05T10:14:41;26.80;81.10
60027;DHT22;45891;53.006;6.512;2023-06-05T10:17:07;27.10;80.50
60027;DHT22;45891;53.006;6.512;2023-06-05T10:19:33;27.10;80.30
60027;DHT22;45891;53.006;6.512;2023-06-05T10:22:01;27.20;81.20
60027;DHT22;45891;53.006;6.512;2023-06-05T10:24:31;27.80;81.00
60027;DHT22;45891;53.006;6.512;2023-06-05T10:29:59;27.30;81.50
60027;DHT22;45891;53.006;6.512;2023-06-05T10:38:20;27.10;80.20
60027;DHT22;45891;53.006;6.512;2023-06-05T10:40:52;27.10;79.70
60027;DHT22;45891;53.006;6.512;2023-06-05T10:43:32;26.10;80.20
60027;DHT22;45891;53.006;6.512;2023-06-05T10:46:00;26.60;80.00
60027;DHT22;45891;53.006;6.512;2023-06-05T10:51:39;27.20;78.40
60027;DHT22;45891;53.006;6.512;2023-06-05T10:54:06;27.20;80.50
60027;DHT22;45891;53.006;6.512;2023-06-05T10:59:20;27.50;79.70
60027;DHT22;45891;53.006;6.512;2023-06-05T11:17:54;27.30;76.70
60027;DHT22;45891;53.006;6.512;2023-06-05T11:27:55;27.50;78.60
60027;DHT22;45891;53.006;6.512;2023-06-05T11:30:23;27.10;76.60
60027;DHT22;45891;53.006;6.512;2023-06-05T11:32:52;27.40;78.20
60027;DHT22;45891;53.006;6.512;2023-06-05T11:35:27;27.40;79.20
60027;DHT22;45891;53.006;6.512;2023-06-05T11:38:10;27.70;78.30
60027;DHT22;45891;53.006;6.512;2023-06-05T11:40:37;27.60;77.30
60027;DHT22;45891;53.006;6.512;2023-06-05T11:43:05;27.60;78.10
60027;DHT22;45891;53.006;6.512;2023-06-05T11:45:33;27.40;77.50
60027;DHT22;45891;53.006;6.512;2023-06-05T11:48:09;27.50;77.10
60027;DHT22;45891;53.006;6.512;2023-06-05T11:50:50;27.60;77.10
60027;DHT22;45891;53.006;6.512;2023-06-05T11:53:17;27.60;77.80
60027;DHT22;45891;53.006;6.512;2023-06-05T11:55:44;27.70;77.90
60027;DHT22;45891;53.006;6.512;2023-06-05T11:58:30;27.80;78.60
60027;DHT22;45891;53.006;6.512;2023-06-05T12:03:41;28.00;77.80
60027;DHT22;45891;53.006;6.512;2023-06-05T12:06:08;27.40;77.00
60027;DHT22;45891;53.006;6.512;2023-06-05T12:08:34;28.00;78.60
60027;DHT22;45891;53.006;6.512;2023-06-05T12:11:25;27.40;78.00
60027;DHT22;45891;53.006;6.512;2023-06-05T12:13:53;27.30;77.20
60027;DHT22;45891;53.006;6.512;2023-06-05T12:16:31;27.30;78.20
60027;DHT22;45891;53.006;6.512;2023-06-05T12:18:58;27.20;77.50
60027;DHT22;45891;53.006;6.512;2023-06-05T12:21:26;26.90;77.80
60027;DHT22;45891;53.006;6.512;2023-06-05T12:24:03;27.20;78.30
60027;DHT22;45891;53.006;6.512;2023-06-05T12:26:30;27.40;77.10
60027;DHT22;45891;53.006;6.512;2023-06-05T12:29:04;27.10;77.20
60027;DHT22;45891;53.006;6.512;2023-06-05T12:31:34;26.80;78.00
60027;DHT22;45891;53.006;6.512;2023-06-05T12:34:02;26.60;78.20
60027;DHT22;45891;53.006;6.512;2023-06-05T12:36:30;26.60;77.70
60027;DHT22;45891;53.006;6.512;2023-06-05T12:39:02;27.00;78.50
60027;DHT22;45891;53.006;6.512;2023-06-05T12:41:30;26.90;78.10
60027;DHT22;45891;53.006;6.512;2023-06-05T12:44:04;26.70;78.40
60027;DHT22;45891;53.006;6.512;2023-06-05T12:46:31;26.50;77.70
60027;DHT22;45891;53.006;6.512;2023-06-05T12:49:00;26.80;78.40
60027;DHT22;45891;53.006;6.512;2023-06-05T12:51:27;27.20;78.70
60027;DHT22;45891;53.006;6.512;2023-06-05T12:53:54;27.60;78.00
60027;DHT22;45891;53.006;6.512;2023-06-05T12:56:22;27.60;77.50
60027;DHT22;45891;53.006;6.512;2023-06-05T12:58:55;27.30;76.90
60027;DHT22;45891;53.006;6.512;2023-06-05T13:01:22;27.50;77.80
60027;DHT22;45891;53.006;6.512;2023-06-05T13:03:49;27.60;77.60
60027;DHT22;45891;53.006;6.512;2023-06-05T13:06:16;27.40;77.10
60027;DHT22;45891;53.006;6.512;2023-06-05T13:08:42;27.10;76.80
60027;DHT22;45891;53.006;6.512;2023-06-05T13:11:08;27.00;77.70
60027;DHT22;45891;53.006;6.512;2023-06-05T13:13:36;27.10;76.70
60027;DHT22;45891;53.006;6.512;2023-06-05T13:16:03;27.20;77.80
60027;DHT22;45891;53.006;6.512;2023-06-05T13:18:32;27.40;77.60
60027;DHT22;45891;53.006;6.512;2023-06-05T13:20:59;27.40;76.70
60027;DHT22;45891;53.006;6.512;2023-06-05T13:23:26;27.30;77.40
60027;DHT22;45891;53.006;6.512;2023-06-05T13:25:53;27.20;78.00
60027;DHT22;45891;53.006;6.512;2023-06-05T13:28:19;27.10;77.30
60027;DHT22;45891;53.006;6.512;2023-06-05T13:30:45;26.50;77.70
60027;DHT22;45891;53.006;6.512;2023-06-05T13:33:13;26.50;78.10
60027;DHT22;45891;53.006;6.512;2023-06-05T13:35:39;26.00;77.90
60027;DHT22;45891;53.006;6.512;2023-06-05T13:38:05;25.90;78.00
60027;DHT22;45891;53.006;6.512;2023-06-05T13:40:32;25.60;78.40
60027;DHT22;45891;53.006;6.512;2023-06-05T13:42:59;25.50;78.90
60027;DHT22;45891;53.006;6.512;2023-06-05T13:45:25;25.70;78.80
60027;DHT22;45891;53.006;6.512;2023-06-05T13:47:51;25.40;79.40
60027;DHT22;45891;53.006;6.512;2023-06-05T13:50:18;25.10;79.30
60027;DHT22;45891;53.006;6.512;2023-06-05T13:52:48;25.00;79.80
60027;DHT22;45891;53.006;6.512;2023-06-05T13:55:14;25.10;80.20
60027;DHT22;45891;53.006;6.512;2023-06-05T13:57:40;25.10;80.00
60027;DHT22;45891;53.006;6.512;2023-06-05T14:00:07;24.70;80.40
60027;DHT22;45891;53.006;6.512;2023-06-05T14:02:34;25.00;80.60
60027;DHT22;45891;53.006;6.512;2023-06-05T14:05:00;24.90;80.80
60027;DHT22;45891;53.006;6.512;2023-06-05T14:07:26;24.70;80.00
60027;DHT22;45891;53.006;6.512;2023-06-05T14:09:52;24.60;80.40
60027;DHT22;45891;53.006;6.512;2023-06-05T14:12:19;24.60;80.80
60027;DHT22;45891;53.006;6.512;2023-06-05T14:14:45;24.90;80.30
60027;DHT22;45891;53.006;6.512;2023-06-05T14:17:11;24.80;80.20
60027;DHT22;45891;53.006;6.512;2023-06-05T14:19:37;24.20;80.30
60027;DHT22;45891;53.006;6.512;2023-06-05T14:22:04;23.80;81.00
60027;DHT22;45891;53.006;6.512;2023-06-05T14:24:31;24.00;81.40
60027;DHT22;45891;53.006;6.512;2023-06-05T14:26:57;23.80;81.90
60027;DHT22;45891;53.006;6.512;2023-06-05T14:29:23;24.10;81.50
60027;DHT22;45891;53.006;6.512;2023-06-05T14:31:50;23.60;81.10
60027;DHT22;45891;53.006;6.512;2023-06-05T14:34:17;23.70;82.30
60027;DHT22;45891;53.006;6.512;2023-06-05T14:36:43;24.10;81.70
60027;DHT22;45891;53.006;6.512;2023-06-05T14:39:17;24.50;81.50
60027;DHT22;45891;53.006;6.512;2023-06-05T14:41:44;24.20;81.30
60027;DHT22;45891;53.006;6.512;2023-06-05T14:44:11;24.30;81.40
60027;DHT22;45891;53.006;6.512;2023-06-05T14:46:37;23.90;81.60
60027;DHT22;45891;53.006;6.512;2023-06-05T14:49:03;24.30;81.70
60027;DHT22;45891;53.006;6.512;2023-06-05T14:51:29;24.70;81.20
60027;DHT22;45891;53.006;6.512;2023-06-05T14:53:56;24.60;80.50
60027;DHT22;45891;53.006;6.512;2023-06-05T14:56:22;24.70;80.70
60027;DHT22;45891;53.006;6.512;2023-06-05T14:58:48;24.00;81.50
60027;DHT22;45891;53.006;6.512;2023-06-05T15:01:14;24.00;81.60
60027;DHT22;45891;53.006;6.512;2023-06-05T15:03:40;24.00;81.60
60027;DHT22;45891;53.006;6.512;2023-06-05T15:06:06;24.80;81.30
60027;DHT22;45891;53.006;6.512;2023-06-05T15:08:32;24.70;80.90
60027;DHT22;45891;53.006;6.512;2023-06-05T15:10:58;24.10;80.90
60027;DHT22;45891;53.006;6.512;2023-06-05T15:13:24;23.70;81.50
60027;DHT22;45891;53.006;6.512;2023-06-05T15:15:50;23.70;82.00
60027;DHT22;45891;53.006;6.512;2023-06-05T15:18:17;23.50;82.00
60027;DHT22;45891;53.006;6.512;2023-06-05T15:20:44;23.90;82.00
60027;DHT22;45891;53.006;6.512;2023-06-05T15:23:10;24.30;81.50
60027;DHT22;45891;53.006;6.512;2023-06-05T15:25:36;23.60;82.00
60027;DHT22;45891;53.006;6.512;2023-06-05T15:28:02;23.60;82.10
60027;DHT22;45891;53.006;6.512;2023-06-05T15:30:28;23.80;82.10
60027;DHT22;45891;53.006;6.512;2023-06-05T15:32:54;23.90;82.30
60027;DHT22;45891;53.006;6.512;2023-06-05T15:35:20;23.60;82.90
60027;DHT22;45891;53.006;6.512;2023-06-05T15:37:46;23.10;82.90
60027;DHT22;45891;53.006;6.512;2023-06-05T15:40:14;22.80;83.30
60027;DHT22;45891;53.006;6.512;2023-06-05T15:42:42;22.30;84.30
60027;DHT22;45891;53.006;6.512;2023-06-05T15:45:13;22.40;84.40
60027;DHT22;45891;53.006;6.512;2023-06-05T15:47:42;22.10;84.40
60027;DHT22;45891;53.006;6.512;2023-06-05T15:50:09;22.10;84.90
60027;DHT22;45891;53.006;6.512;2023-06-05T15:52:38;22.20;84.40
60027;DHT22;45891;53.006;6.512;2023-06-05T15:55:04;21.80;84.60
60027;DHT22;45891;53.006;6.512;2023-06-05T15:57:31;21.70;85.50
60027;DHT22;45891;53.006;6.512;2023-06-05T15:59:57;22.00;85.00
60027;DHT22;45891;53.006;6.512;2023-06-05T16:02:23;22.00;84.50
60027;DHT22;45891;53.006;6.512;2023-06-05T16:04:49;21.90;84.90
60027;DHT22;45891;53.006;6.512;2023-06-05T16:07:15;22.00;85.00
60027;DHT22;45891;53.006;6.512;2023-06-05T16:09:44;21.80;84.90
60027;DHT22;45891;53.006;6.512;2023-06-05T16:12:10;21.70;85.40
60027;DHT22;45891;53.006;6.512;2023-06-05T16:14:37;21.90;85.30
60027;DHT22;45891;53.006;6.512;2023-06-05T16:17:03;21.80;85.50
60027;DHT22;45891;53.006;6.512;2023-06-05T16:19:31;21.50;86.00
60027;DHT22;45891;53.006;6.512;2023-06-05T16:21:58;21.50;86.50
60027;DHT22;45891;53.006;6.512;2023-06-05T16:24:24;21.50;86.50